createdAt,value
2018-04-11T00:01:59.478Z,98.30
2018-04-11T00:04:25.495Z,98.55
2018-04-11T00:06:52.545Z,98.37
2018-04-11T00:09:18.656Z,98.52
2018-04-11T00:11:44.751Z,98.23
2018-04-11T00:14:10.783Z,98.27
2018-04-11T00:16:36.845Z,98.01
2018-04-11T00:19:02.907Z,98.14
2018-04-11T00:21:28.996Z,97.93
2018-04-11T00:23:55.002Z,98.03
2018-04-11T00:26:21.241Z,98.40
2018-04-11T00:28:47.390Z,98.46
2018-04-11T00:31:13.549Z,98.34
2018-04-11T00:33:39.659Z,98.46
2018-04-11T00:36:05.769Z,98.62
2018-04-11T00:38:31.767Z,98.76
2018-04-11T00:40:57.836Z,98.68
2018-04-11T00:43:23.869Z,98.56
2018-04-11T00:45:49.957Z,98.53
2018-04-11T00:48:15.990Z,98.40
2018-04-11T00:50:41.989Z,98.60
2018-04-11T00:53:20.235Z,98.53
2018-04-11T00:55:46.264Z,98.55
2018-04-11T00:58:12.332Z,98.64
2018-04-11T01:00:38.366Z,98.55
2018-04-11T01:03:05.097Z,98.45
2018-04-11T01:05:31.125Z,98.73
2018-04-11T01:07:57.152Z,98.50
2018-04-11T01:10:23.185Z,98.46
2018-04-11T01:12:49.251Z,98.33
2018-04-11T01:15:15.277Z,98.52
2018-04-11T01:17:41.301Z,98.47
2018-04-11T01:20:07.464Z,98.26
2018-04-11T01:22:33.536Z,98.36
2018-04-11T01:24:59.525Z,98.28
2018-04-11T01:27:25.536Z,98.24
2018-04-11T01:29:51.578Z,98.19
2018-04-11T01:32:17.585Z,98.04
2018-04-11T01:34:43.658Z,98.14
2018-04-11T01:37:09.668Z,98.21
2018-04-11T01:39:35.647Z,98.12
2018-04-11T01:42:01.669Z,98.34
2018-04-11T01:44:27.696Z,98.01
2018-04-11T01:46:53.724Z,97.99
2018-04-11T01:49:19.763Z,97.97
2018-04-11T01:51:45.793Z,98.31
2018-04-11T01:54:11.833Z,97.95
2018-04-11T01:56:37.840Z,97.91
2018-04-11T01:59:03.944Z,97.78
2018-04-11T02:01:29.958Z,97.68
2018-04-11T02:03:55.980Z,97.42
2018-04-11T02:06:21.981Z,97.58
2018-04-11T02:08:48.029Z,97.51
2018-04-11T02:11:14.053Z,97.31
2018-04-11T02:13:40.068Z,97.00
2018-04-11T02:16:06.128Z,97.33
2018-04-11T02:18:32.140Z,97.15
2018-04-11T02:20:58.173Z,96.99
2018-04-11T02:23:24.183Z,95.52
2018-04-11T02:25:50.258Z,94.87
2018-04-11T02:28:16.314Z,97.25
2018-04-11T02:30:42.339Z,97.61
2018-04-11T02:33:08.397Z,97.74
2018-04-11T02:35:34.400Z,98.13
2018-04-11T02:38:00.495Z,97.88
2018-04-11T02:40:26.573Z,98.08
2018-04-11T02:42:52.570Z,98.07
2018-04-11T02:45:18.671Z,98.38
2018-04-11T02:47:44.707Z,98.93
2018-04-11T02:50:10.726Z,98.51
2018-04-11T02:52:36.783Z,97.86
2018-04-11T02:55:03.019Z,98.42
2018-04-11T02:57:29.095Z,98.74
2018-04-11T02:59:55.123Z,98.78
2018-04-11T03:02:21.136Z,98.70
2018-04-11T03:04:47.287Z,98.58
2018-04-11T03:07:13.360Z,98.52
2018-04-11T03:09:39.359Z,98.81
2018-04-11T03:12:05.384Z,99.26
2018-04-11T03:14:31.426Z,99.21
2018-04-11T03:16:57.449Z,98.92
2018-04-11T03:19:23.460Z,98.75
2018-04-11T03:21:49.464Z,98.95
2018-04-11T03:24:15.543Z,99.16
2018-04-11T03:26:41.560Z,99.16
2018-04-11T03:29:07.586Z,98.91
2018-04-11T03:31:33.692Z,99.03
2018-04-11T03:33:59.724Z,98.75
2018-04-11T03:36:25.730Z,98.96
2018-04-11T03:38:51.749Z,98.99
2018-04-11T03:41:17.819Z,99.05
2018-04-11T03:43:43.848Z,98.91
2018-04-11T03:46:09.849Z,98.78
2018-04-11T03:48:35.862Z,98.98
2018-04-11T03:51:01.893Z,98.85
2018-04-11T03:53:28.090Z,98.98
2018-04-11T03:55:54.135Z,98.92
2018-04-11T03:58:20.129Z,98.96
2018-04-11T04:00:46.167Z,98.87
2018-04-11T04:03:12.173Z,98.99
2018-04-11T04:05:38.216Z,98.88
2018-04-11T04:08:04.223Z,99.04
2018-04-11T04:10:30.234Z,99.02
2018-04-11T04:12:56.257Z,98.96
2018-04-11T04:15:34.330Z,98.96
2018-04-11T04:18:12.420Z,98.91
2018-04-11T04:20:38.612Z,99.03
2018-04-11T04:23:04.670Z,99.01
2018-04-11T04:25:30.698Z,99.07
2018-04-11T04:27:56.718Z,98.86
2018-04-11T04:30:22.858Z,98.82
2018-04-11T04:32:48.862Z,98.85
2018-04-11T04:35:14.889Z,98.85
2018-04-11T04:37:41.027Z,98.62
2018-04-11T04:40:07.076Z,98.50
2018-04-11T04:42:33.069Z,98.41
2018-04-11T04:44:59.137Z,98.36
2018-04-11T04:47:25.259Z,98.31
2018-04-11T04:49:51.344Z,98.40
2018-04-11T04:52:17.340Z,98.34
2018-04-11T04:54:43.364Z,98.34
2018-04-11T04:57:09.969Z,98.37
2018-04-11T04:59:35.995Z,98.21
2018-04-11T05:02:02.019Z,98.40
2018-04-11T05:04:28.034Z,98.60
2018-04-11T05:06:54.049Z,98.53
2018-04-11T05:09:20.082Z,98.41
2018-04-11T05:11:46.092Z,98.33
2018-04-11T05:14:12.075Z,98.31
2018-04-11T05:16:38.109Z,98.55
2018-04-11T05:19:04.120Z,99.20
2018-04-11T05:21:30.168Z,99.45
2018-04-11T05:23:56.214Z,99.55
2018-04-11T05:26:22.237Z,99.56
2018-04-11T05:28:48.314Z,99.74
2018-04-11T05:31:14.372Z,99.84
2018-04-11T05:33:40.425Z,99.92
2018-04-11T05:36:06.449Z,99.59
2018-04-11T05:38:32.472Z,99.60
2018-04-11T05:40:59.163Z,99.49
2018-04-11T05:43:25.229Z,99.50
2018-04-11T05:45:51.293Z,99.57
2018-04-11T05:48:17.289Z,99.49
2018-04-11T05:50:43.300Z,99.65
2018-04-11T05:53:09.382Z,99.51
2018-04-11T05:55:35.425Z,99.63
2018-04-11T05:58:01.559Z,99.61
2018-04-11T06:00:27.658Z,99.21
2018-04-11T06:02:53.830Z,99.25
2018-04-11T06:05:20.039Z,99.36
2018-04-11T06:07:46.077Z,98.88
2018-04-11T06:10:12.140Z,99.18
2018-04-11T06:12:38.152Z,99.20
2018-04-11T06:15:04.191Z,98.87
2018-04-11T06:17:30.205Z,98.79
2018-04-11T06:19:56.204Z,98.70
2018-04-11T06:22:22.300Z,98.56
2018-04-11T06:24:48.337Z,98.54
2018-04-11T06:27:14.473Z,97.93
2018-04-11T06:29:40.603Z,97.99
2018-04-11T06:32:06.776Z,98.00
2018-04-11T06:34:32.912Z,97.89
2018-04-11T06:36:59.058Z,98.28
2018-04-11T06:39:25.196Z,98.28
2018-04-11T06:41:51.694Z,98.34
2018-04-11T06:44:17.887Z,98.21
2018-04-11T06:46:44.026Z,98.65
2018-04-11T06:49:10.181Z,98.75
2018-04-11T06:51:36.225Z,98.54
2018-04-11T06:54:02.393Z,98.74
2018-04-11T06:56:28.520Z,98.54
2018-04-11T06:58:55.261Z,98.37
2018-04-11T07:01:21.419Z,98.00
2018-04-11T07:03:47.475Z,97.72
2018-04-11T07:06:13.571Z,97.86
2018-04-11T07:08:39.784Z,97.44
2018-04-11T07:11:05.834Z,97.23
2018-04-11T07:13:31.955Z,96.24
2018-04-11T07:15:58.044Z,96.96
2018-04-11T07:18:24.140Z,96.80
2018-04-11T07:20:50.265Z,96.81
2018-04-11T07:23:17.013Z,96.11
2018-04-11T07:25:43.105Z,96.28
2018-04-11T07:28:09.252Z,96.16
2018-04-11T07:30:35.341Z,94.88
2018-04-11T07:33:01.423Z,95.34
2018-04-11T07:35:27.473Z,96.21
2018-04-11T07:37:53.637Z,96.13
2018-04-11T07:40:19.690Z,96.25
2018-04-11T07:42:45.770Z,96.61
2018-04-11T07:45:11.847Z,96.31
2018-04-11T07:47:37.896Z,95.02
2018-04-11T07:50:03.916Z,94.00
2018-04-11T07:52:30.044Z,95.55
2018-04-11T07:54:56.153Z,95.71
2018-04-11T07:57:22.223Z,95.77
2018-04-11T07:59:48.311Z,96.25
2018-04-11T08:02:14.352Z,96.21
2018-04-11T08:04:40.486Z,94.98
2018-04-11T08:07:06.555Z,95.34
2018-04-11T08:09:32.600Z,94.04
2018-04-11T08:11:59.248Z,92.71
2018-04-11T08:14:25.406Z,93.62
2018-04-11T08:16:51.438Z,93.92
2018-04-11T08:19:17.520Z,94.22
2018-04-11T08:21:43.678Z,92.95
2018-04-11T08:24:09.716Z,94.33
2018-04-11T08:26:35.812Z,93.34
2018-04-11T08:29:01.888Z,93.19
2018-04-11T08:31:28.002Z,90.39
2018-04-11T08:33:54.422Z,89.24
2018-04-11T08:36:20.483Z,88.71
2018-04-11T08:38:46.590Z,90.14
2018-04-11T08:41:12.762Z,88.66
2018-04-11T08:43:38.924Z,89.25
2018-04-11T08:46:04.944Z,89.16
2018-04-11T08:48:31.029Z,89.77
2018-04-11T08:50:57.182Z,88.10
2018-04-11T08:53:23.309Z,87.54
2018-04-11T08:55:49.428Z,80.80
2018-04-11T08:58:15.461Z,79.33
2018-04-11T09:00:41.536Z,85.38
2018-04-11T09:03:08.246Z,87.50
2018-04-11T09:05:34.373Z,86.70
2018-04-11T09:08:00.429Z,87.98
2018-04-11T09:10:26.501Z,84.48
2018-04-11T09:12:52.574Z,85.35
2018-04-11T09:15:18.676Z,83.68
2018-04-11T09:17:44.684Z,84.06
2018-04-11T09:20:10.740Z,84.38
2018-04-11T09:22:36.901Z,81.87
2018-04-11T09:25:03.053Z,79.65
2018-04-11T09:27:29.169Z,83.38
2018-04-11T09:29:55.225Z,83.57
2018-04-11T09:32:21.949Z,82.34
2018-04-11T09:34:48.025Z,83.57
2018-04-11T09:37:14.081Z,80.76
2018-04-11T09:39:40.090Z,83.53
2018-04-11T09:42:06.134Z,83.03
2018-04-11T09:44:32.178Z,82.15
2018-04-11T09:46:58.288Z,82.22
2018-04-11T09:49:24.371Z,82.65
2018-04-11T09:51:50.424Z,82.52
2018-04-11T09:54:16.587Z,82.34
2018-04-11T09:56:42.698Z,82.97
2018-04-11T09:59:08.721Z,84.90
2018-04-11T10:01:40.837Z,84.13
2018-04-11T10:04:06.984Z,84.40
2018-04-11T10:06:33.070Z,84.26
2018-04-11T10:08:59.137Z,84.11
2018-04-11T10:11:25.156Z,85.48
2018-04-11T10:13:51.277Z,84.74
2018-04-11T10:16:17.445Z,86.26
2018-04-11T10:18:43.625Z,85.03
2018-04-11T10:21:09.687Z,85.30
2018-04-11T10:23:35.729Z,85.47
2018-04-11T10:26:01.823Z,86.13
2018-04-11T10:28:27.890Z,86.07
2018-04-11T10:30:53.947Z,86.48
2018-04-11T10:33:20.000Z,87.15
2018-04-11T10:35:46.012Z,86.34
2018-04-11T10:38:12.033Z,86.73
2018-04-11T10:40:38.045Z,85.29
2018-04-11T10:43:04.088Z,86.74
2018-04-11T10:45:30.163Z,87.12
2018-04-11T10:47:56.264Z,85.87
2018-04-11T10:50:22.318Z,86.42
2018-04-11T10:52:48.333Z,86.28
2018-04-11T10:55:14.448Z,85.06
2018-04-11T10:57:40.497Z,85.64
2018-04-11T11:00:06.553Z,86.37
2018-04-11T11:02:32.564Z,86.46
2018-04-11T11:04:58.572Z,85.77
2018-04-11T11:07:24.621Z,83.88
2018-04-11T11:09:50.739Z,85.32
2018-04-11T11:12:16.789Z,84.09
2018-04-11T11:14:42.872Z,83.91
2018-04-11T11:17:09.074Z,84.21
2018-04-11T11:19:35.284Z,85.12
2018-04-11T11:22:01.457Z,85.35
2018-04-11T11:24:27.587Z,85.00
2018-04-11T11:26:53.610Z,84.31
2018-04-11T11:29:19.635Z,84.74
2018-04-11T11:31:46.421Z,85.22
2018-04-11T11:34:12.434Z,84.54
2018-04-11T11:36:38.659Z,85.03
2018-04-11T11:39:04.804Z,83.44
2018-04-11T11:41:31.309Z,82.82
2018-04-11T11:43:57.422Z,82.30
2018-04-11T11:46:23.452Z,81.89
2018-04-11T11:48:49.555Z,82.53
2018-04-11T11:51:15.568Z,80.87
2018-04-11T11:53:41.608Z,80.37
2018-04-11T11:56:08.605Z,80.82
2018-04-11T11:58:34.818Z,79.81
2018-04-11T12:01:00.832Z,81.32
2018-04-11T12:03:26.869Z,80.92
2018-04-11T12:05:52.918Z,80.17
2018-04-11T12:08:18.960Z,81.37
2018-04-11T12:10:44.990Z,81.01
2018-04-11T12:13:11.680Z,80.86
2018-04-11T12:15:37.721Z,80.16
2018-04-11T12:18:03.784Z,78.83
2018-04-11T12:20:29.863Z,78.86
2018-04-11T12:22:55.878Z,80.26
2018-04-11T12:25:21.936Z,80.99
2018-04-11T12:27:47.956Z,82.50
2018-04-11T12:30:13.952Z,81.03
2018-04-11T12:32:39.977Z,81.03
2018-04-11T12:35:06.023Z,81.20
2018-04-11T12:37:32.080Z,80.99
2018-04-11T12:39:58.088Z,82.22
2018-04-11T12:42:24.118Z,82.30
2018-04-11T12:44:50.146Z,79.97
2018-04-11T12:47:16.221Z,79.79
2018-04-11T12:49:42.514Z,79.91
2018-04-11T12:52:08.546Z,78.11
2018-04-11T12:54:34.662Z,78.77
2018-04-11T13:01:06.760Z,78.80
2018-04-11T13:03:32.760Z,78.19
2018-04-11T13:05:58.820Z,77.89
2018-04-11T13:08:24.852Z,78.45
2018-04-11T13:10:50.905Z,78.17
2018-04-11T13:13:17.282Z,76.41
2018-04-11T13:15:43.363Z,76.59
2018-04-11T13:18:09.384Z,75.32
2018-04-11T13:20:35.574Z,76.46
2018-04-11T13:23:01.734Z,75.55
2018-04-11T13:25:27.781Z,75.70
2018-04-11T13:27:53.796Z,75.03
2018-04-11T13:30:19.821Z,73.99
2018-04-11T13:32:45.853Z,74.75
2018-04-11T13:35:11.949Z,73.98
2018-04-11T13:37:37.995Z,73.48
2018-04-11T13:40:04.006Z,74.85
2018-04-11T13:42:30.100Z,72.24
2018-04-11T13:44:56.181Z,69.08
2018-04-11T13:47:22.275Z,66.86
2018-04-11T13:49:48.347Z,67.84
2018-04-11T13:52:14.366Z,65.97
2018-04-11T13:54:40.521Z,65.32
2018-04-11T13:57:06.570Z,65.31
2018-04-11T13:59:32.600Z,66.02
2018-04-11T14:01:59.565Z,66.17
2018-04-11T14:04:26.654Z,66.34
2018-04-11T14:06:52.836Z,68.15
2018-04-11T14:09:19.041Z,69.46
2018-04-11T14:11:45.160Z,69.17
2018-04-11T14:14:11.186Z,70.47
2018-04-11T14:16:37.381Z,71.71
2018-04-11T14:19:03.473Z,72.54
2018-04-11T14:21:29.582Z,71.22
2018-04-11T14:23:55.652Z,69.98
2018-04-11T14:26:21.711Z,69.35
2018-04-11T14:28:47.871Z,68.90
2018-04-11T14:31:13.940Z,68.23
2018-04-11T14:33:39.974Z,68.04
2018-04-11T14:36:06.065Z,68.98
2018-04-11T14:38:32.144Z,70.01
2018-04-11T14:40:58.275Z,70.10
2018-04-11T14:43:24.295Z,67.92
2018-04-11T14:45:50.397Z,68.47
2018-04-11T14:48:16.473Z,67.87
2018-04-11T14:50:42.573Z,67.84
2018-04-11T14:53:08.658Z,67.94
2018-04-11T14:55:34.884Z,67.45
2018-04-11T14:58:00.970Z,66.22
2018-04-11T15:00:27.001Z,64.88
2018-04-11T15:02:53.093Z,63.68
2018-04-11T15:05:19.241Z,60.75
2018-04-11T15:07:45.329Z,58.32
2018-04-11T15:10:11.357Z,62.33
2018-04-11T15:12:37.393Z,63.29
2018-04-11T15:15:03.724Z,64.21
2018-04-11T15:17:29.911Z,63.61
2018-04-11T15:19:56.090Z,62.03
2018-04-11T15:22:22.113Z,62.24
2018-04-11T15:24:48.162Z,63.00
2018-04-11T15:27:14.265Z,61.56
2018-04-11T15:29:40.276Z,64.09
2018-04-11T15:32:06.302Z,65.01
2018-04-11T15:34:32.341Z,63.50
2018-04-11T15:36:58.510Z,63.38
2018-04-11T15:39:24.557Z,65.85
2018-04-11T15:41:50.604Z,66.10
2018-04-11T15:44:16.752Z,66.40
2018-04-11T15:46:43.765Z,66.41
2018-04-11T15:49:09.782Z,65.66
2018-04-11T15:51:35.877Z,67.43
2018-04-11T15:54:01.893Z,67.87
2018-04-11T15:56:27.925Z,67.36
2018-04-11T15:58:53.968Z,64.01
2018-04-11T16:01:20.030Z,60.07
2018-04-11T16:03:46.181Z,54.98
2018-04-11T16:06:12.254Z,59.80
2018-04-11T16:08:38.337Z,57.98
2018-04-11T16:11:04.429Z,57.21
2018-04-11T16:13:30.449Z,57.05
2018-04-11T16:15:56.537Z,54.93
2018-04-11T16:18:22.569Z,62.13
2018-04-11T16:20:48.837Z,63.51
2018-04-11T16:23:14.914Z,63.04
2018-04-11T16:25:41.051Z,62.25
2018-04-11T16:28:07.211Z,63.04
2018-04-11T16:30:33.288Z,65.14
2018-04-11T16:32:59.324Z,66.62
2018-04-11T16:35:25.402Z,68.00
2018-04-11T16:37:51.628Z,67.83
2018-04-11T16:40:17.720Z,68.85
2018-04-11T16:42:43.774Z,69.33
2018-04-11T16:45:09.820Z,69.92
2018-04-11T16:47:35.896Z,70.30
2018-04-11T16:50:01.925Z,70.15
2018-04-11T16:52:28.073Z,70.48
2018-04-11T16:54:54.148Z,70.61
2018-04-11T16:57:20.231Z,70.32
2018-04-11T16:59:46.324Z,70.20
2018-04-11T17:02:12.416Z,70.94
2018-04-11T17:04:38.501Z,71.11
2018-04-11T17:07:04.576Z,71.47
2018-04-11T17:09:30.657Z,71.85
2018-04-11T17:11:56.805Z,72.03
2018-04-11T17:14:22.975Z,72.09
2018-04-11T17:16:49.122Z,71.85
2018-04-11T17:19:15.212Z,71.94
2018-04-11T17:21:53.367Z,72.37
2018-04-11T17:24:31.699Z,72.78
2018-04-11T17:27:09.883Z,72.04
2018-04-11T17:29:48.158Z,72.70
2018-04-11T17:32:14.192Z,72.65
2018-04-11T17:34:40.299Z,73.24
2018-04-11T17:37:06.333Z,73.15
2018-04-11T17:39:32.386Z,72.90
2018-04-11T17:41:58.395Z,73.01
2018-04-11T17:44:24.449Z,73.38
2018-04-11T17:46:50.469Z,73.27
2018-04-11T17:49:16.475Z,73.31
2018-04-11T17:51:42.515Z,73.56
2018-04-11T17:54:08.839Z,73.82
2018-04-11T17:56:34.963Z,73.96
2018-04-11T17:59:01.120Z,74.27
2018-04-11T18:01:27.219Z,74.58
2018-04-11T18:03:53.229Z,75.15
2018-04-11T18:06:19.453Z,75.17
2018-04-11T18:08:45.527Z,75.12
2018-04-11T18:11:11.636Z,75.41
2018-04-11T18:13:37.669Z,75.40
2018-04-11T18:16:03.789Z,76.02
2018-04-11T18:18:29.844Z,76.74
2018-04-11T18:20:55.966Z,76.88
2018-04-11T18:23:22.017Z,76.76
2018-04-11T18:25:48.031Z,76.61
2018-04-11T18:28:14.076Z,77.08
2018-04-11T18:30:40.116Z,77.99
2018-04-11T18:33:06.179Z,78.64
2018-04-11T18:35:32.185Z,78.32
2018-04-11T18:37:58.227Z,78.58
2018-04-11T18:40:24.281Z,79.69
2018-04-11T18:42:50.370Z,79.63
2018-04-11T18:45:16.475Z,80.13
2018-04-11T18:47:42.535Z,80.29
2018-04-11T18:50:08.605Z,79.91
2018-04-11T18:52:34.611Z,80.44
2018-04-11T18:55:01.539Z,80.18
2018-04-11T18:57:27.717Z,80.50
2018-04-11T18:59:53.826Z,80.01
2018-04-11T19:02:19.868Z,80.40
2018-04-11T19:04:45.900Z,79.62
2018-04-11T19:07:11.956Z,80.44
2018-04-11T19:09:38.034Z,80.87
2018-04-11T19:12:04.081Z,81.31
2018-04-11T19:14:30.103Z,81.92
2018-04-11T19:16:56.132Z,81.48
2018-04-11T19:19:22.204Z,82.71
2018-04-11T19:21:48.283Z,82.74
2018-04-11T19:24:14.317Z,82.44
2018-04-11T19:26:40.425Z,82.73
2018-04-11T19:29:06.450Z,83.21
2018-04-11T19:31:32.557Z,83.03
2018-04-11T19:33:58.597Z,82.42
2018-04-11T19:36:24.656Z,82.61
2018-04-11T19:38:50.766Z,82.63
2018-04-11T19:41:16.755Z,82.36
2018-04-11T19:43:43.260Z,82.57
2018-04-11T19:46:09.523Z,82.71
2018-04-11T19:48:35.631Z,82.95
2018-04-11T19:51:01.724Z,83.92
2018-04-11T19:53:27.789Z,84.09
2018-04-11T19:55:53.895Z,83.94
2018-04-11T19:58:19.940Z,83.86
2018-04-11T20:00:45.969Z,83.09
2018-04-11T20:03:11.976Z,82.72
2018-04-11T20:05:38.102Z,82.71
2018-04-11T20:08:04.206Z,82.81
2018-04-11T20:10:30.252Z,84.20
2018-04-11T20:12:56.275Z,83.74
2018-04-11T20:15:23.033Z,83.23
2018-04-11T20:17:49.169Z,83.52
2018-04-11T20:20:15.306Z,84.79
2018-04-11T20:22:41.375Z,85.19
2018-04-11T20:25:07.431Z,84.01
2018-04-11T20:27:34.132Z,84.43
2018-04-11T20:30:00.190Z,83.90
2018-04-11T20:32:26.218Z,83.58
2018-04-11T20:34:52.367Z,83.59
2018-04-11T20:37:18.388Z,83.55
2018-04-11T20:39:44.456Z,84.16
2018-04-11T20:42:10.539Z,84.09
2018-04-11T20:44:36.577Z,83.63
2018-04-11T20:47:02.656Z,83.68
2018-04-11T20:49:28.685Z,83.72
2018-04-11T20:51:54.690Z,83.83
2018-04-11T20:54:20.708Z,83.73
2018-04-11T20:56:46.838Z,84.56
2018-04-11T20:59:12.947Z,84.14
2018-04-11T21:01:38.949Z,84.15
2018-04-11T21:04:05.613Z,84.87
2018-04-11T21:06:31.713Z,86.54
2018-04-11T21:08:57.855Z,85.11
2018-04-11T21:11:23.905Z,84.80
2018-04-11T21:13:49.920Z,85.41
2018-04-11T21:16:15.957Z,85.50
2018-04-11T21:18:42.026Z,85.31
2018-04-11T21:21:08.055Z,85.54
2018-04-11T21:23:34.113Z,86.90
2018-04-11T21:26:00.238Z,86.61
2018-04-11T21:28:26.288Z,87.69
2018-04-11T21:32:07.532Z,87.65
2018-04-11T21:34:33.705Z,87.56
2018-04-11T21:36:59.714Z,87.50
2018-04-11T21:39:25.747Z,87.36
2018-04-11T21:41:51.833Z,87.35
2018-04-11T21:44:17.876Z,86.94
2018-04-11T21:46:43.893Z,87.00
2018-04-11T21:49:09.910Z,87.49
2018-04-11T21:51:36.018Z,87.37
2018-04-11T21:54:02.030Z,87.40
2018-04-11T21:56:28.128Z,87.44
2018-04-11T21:58:54.172Z,87.53
2018-04-11T22:01:20.197Z,87.91
2018-04-11T22:03:46.240Z,88.04
2018-04-11T22:06:12.241Z,88.35
2018-04-11T22:08:38.274Z,88.05
2018-04-11T22:11:04.291Z,88.13
2018-04-11T22:13:30.296Z,88.59
2018-04-11T22:15:56.384Z,89.09
2018-04-11T22:18:22.432Z,89.10
2018-04-11T22:20:48.504Z,88.87
2018-04-11T22:23:14.607Z,89.02
2018-04-11T22:25:40.713Z,89.11
2018-04-11T22:28:06.755Z,88.70
2018-04-11T22:30:32.778Z,89.29
2018-04-11T22:32:58.943Z,89.35
2018-04-11T22:35:26.046Z,89.63
2018-04-11T22:37:52.118Z,89.22
2018-04-11T22:40:18.145Z,89.57
2018-04-11T22:42:44.145Z,89.50
2018-04-11T22:45:10.462Z,89.54
2018-04-11T22:47:36.545Z,89.43
2018-04-11T22:50:02.638Z,89.46
2018-04-11T22:52:28.676Z,89.32
2018-04-11T22:54:55.297Z,89.59
2018-04-11T22:57:21.380Z,89.64
2018-04-11T22:59:47.505Z,89.63
2018-04-11T23:02:13.572Z,89.97
2018-04-11T23:04:39.670Z,89.71
2018-04-11T23:07:05.739Z,89.97
2018-04-11T23:09:31.830Z,89.71
2018-04-11T23:11:57.910Z,89.83
2018-04-11T23:14:24.411Z,89.98
2018-04-11T23:16:50.461Z,89.84
2018-04-11T23:19:16.551Z,89.70
2018-04-11T23:21:42.598Z,89.71
2018-04-11T23:24:08.716Z,89.68
2018-04-11T23:26:34.828Z,89.65
2018-04-11T23:29:00.881Z,89.78
2018-04-11T23:31:27.157Z,90.07
2018-04-11T23:33:53.293Z,90.20
2018-04-11T23:36:19.464Z,90.06
2018-04-11T23:38:45.540Z,90.02
2018-04-11T23:41:11.570Z,89.93
2018-04-11T23:43:37.680Z,90.15
2018-04-11T23:46:03.728Z,89.97
2018-04-11T23:48:29.752Z,89.92
2018-04-11T23:50:55.759Z,90.21
2018-04-11T23:53:21.828Z,90.22
2018-04-11T23:55:47.830Z,90.34
2018-04-11T23:58:13.848Z,90.51
